createdAt,value
2017-10-26T00:00:14.279Z,5.57
2017-10-26T00:00:48.135Z,5.40
2017-10-26T00:01:22.008Z,5.68
2017-10-26T00:01:55.883Z,5.87
2017-10-26T00:02:29.749Z,5.47
2017-10-26T00:03:03.667Z,6.05
2017-10-26T00:03:37.539Z,5.93
2017-10-26T00:04:11.401Z,6.68
2017-10-26T00:04:45.270Z,5.93
2017-10-26T00:05:19.133Z,6.45
2017-10-26T00:05:52.996Z,5.25
2017-10-26T00:06:26.893Z,6.03
2017-10-26T00:07:00.784Z,5.53
2017-10-26T00:07:34.642Z,6.20
2017-10-26T00:08:08.722Z,5.90
2017-10-26T00:08:42.582Z,5.60
2017-10-26T00:09:16.448Z,6.05
2017-10-26T00:09:50.310Z,6.18
2017-10-26T00:10:24.179Z,6.15
2017-10-26T00:10:58.037Z,6.55
2017-10-26T00:11:31.911Z,6.00
2017-10-26T00:12:05.806Z,5.50
2017-10-26T00:12:39.680Z,5.45
2017-10-26T00:13:13.534Z,5.75
2017-10-26T00:13:47.394Z,5.60
2017-10-26T00:14:21.264Z,5.62
2017-10-26T00:14:55.117Z,6.20
2017-10-26T00:15:28.988Z,5.72
2017-10-26T00:16:02.855Z,6.12
2017-10-26T00:16:36.714Z,5.50
2017-10-26T00:17:10.596Z,7.15
2017-10-26T00:17:44.465Z,6.25
2017-10-26T00:18:18.336Z,6.50
2017-10-26T00:18:52.217Z,5.85
2017-10-26T00:19:26.093Z,6.37
2017-10-26T00:19:59.966Z,6.62
2017-10-26T00:20:33.853Z,6.18
2017-10-26T00:21:07.741Z,6.97
2017-10-26T00:21:41.603Z,7.28
2017-10-26T00:22:15.494Z,6.47
2017-10-26T00:22:49.358Z,6.60
2017-10-26T00:23:23.235Z,7.40
2017-10-26T00:23:57.099Z,8.25
2017-10-26T00:24:30.970Z,8.82
2017-10-26T00:25:04.850Z,8.43
2017-10-26T00:25:38.759Z,8.18
2017-10-26T00:26:12.742Z,8.80
2017-10-26T00:26:46.598Z,9.48
2017-10-26T00:27:20.754Z,9.07
2017-10-26T00:27:54.633Z,10.13
2017-10-26T00:28:28.496Z,9.05
2017-10-26T00:29:02.437Z,10.38
2017-10-26T00:29:36.290Z,9.57
2017-10-26T00:30:10.171Z,10.65
2017-10-26T00:30:44.035Z,10.15
2017-10-26T00:31:17.893Z,10.52
2017-10-26T00:31:51.757Z,9.70
2017-10-26T00:32:25.720Z,10.32
2017-10-26T00:32:59.604Z,10.13
2017-10-26T00:33:33.515Z,10.43
2017-10-26T00:34:07.394Z,9.70
2017-10-26T00:34:41.263Z,9.90
2017-10-26T00:35:15.130Z,11.10
2017-10-26T00:35:49.003Z,11.15
2017-10-26T00:36:22.879Z,10.07
2017-10-26T00:36:57.766Z,10.68
2017-10-26T00:37:31.634Z,10.90
2017-10-26T00:38:05.503Z,10.52
2017-10-26T00:38:39.401Z,11.63
2017-10-26T00:39:13.295Z,11.55
2017-10-26T00:39:47.150Z,11.88
2017-10-26T00:40:21.018Z,10.30
2017-10-26T00:40:55.160Z,10.80
2017-10-26T00:41:29.053Z,10.68
2017-10-26T00:42:02.939Z,10.80
2017-10-26T00:42:36.831Z,11.52
2017-10-26T00:43:10.712Z,11.07
2017-10-26T00:43:44.571Z,10.60
2017-10-26T00:44:18.452Z,11.00
2017-10-26T00:44:52.329Z,11.30
2017-10-26T00:45:26.204Z,11.43
2017-10-26T00:46:00.083Z,11.15
2017-10-26T00:46:33.937Z,10.77
2017-10-26T00:47:07.804Z,10.50
2017-10-26T00:47:41.922Z,12.00
2017-10-26T00:48:15.802Z,11.15
2017-10-26T00:48:49.759Z,11.18
2017-10-26T00:49:23.632Z,10.25
2017-10-26T00:49:57.601Z,11.68
2017-10-26T00:50:31.455Z,11.52
2017-10-26T00:51:05.335Z,9.95
2017-10-26T00:51:39.206Z,11.07
2017-10-26T00:52:13.077Z,11.75
2017-10-26T00:52:46.956Z,12.02
2017-10-26T00:53:20.946Z,11.43
2017-10-26T00:53:54.806Z,11.20
2017-10-26T00:54:28.907Z,11.60
2017-10-26T00:55:03.062Z,11.38
2017-10-26T00:55:36.927Z,11.05
2017-10-26T00:56:10.811Z,9.77
2017-10-26T00:56:44.683Z,11.20
2017-10-26T00:57:18.556Z,11.77
2017-10-26T00:57:52.443Z,10.60
2017-10-26T00:58:26.314Z,10.18
2017-10-26T00:59:00.185Z,11.38
2017-10-26T00:59:34.047Z,11.12
2017-10-26T01:00:07.931Z,10.80
2017-10-26T01:00:41.790Z,10.23
2017-10-26T01:01:15.812Z,11.57
2017-10-26T01:01:49.669Z,9.70
2017-10-26T01:02:23.534Z,10.05
2017-10-26T01:02:57.487Z,10.40
2017-10-26T01:03:31.350Z,10.13
2017-10-26T01:04:05.209Z,10.52
2017-10-26T01:04:39.090Z,10.68
2017-10-26T01:05:13.051Z,10.50
2017-10-26T01:05:46.926Z,11.10
2017-10-26T01:06:20.800Z,10.80
2017-10-26T01:06:54.658Z,10.80
2017-10-26T01:07:28.519Z,11.05
2017-10-26T01:08:02.443Z,10.43
2017-10-26T01:08:36.355Z,9.48
2017-10-26T01:09:10.227Z,10.65
2017-10-26T01:09:44.125Z,9.27
2017-10-26T01:10:17.988Z,9.85
2017-10-26T01:10:51.871Z,10.48
2017-10-26T01:11:25.733Z,10.38
2017-10-26T01:11:59.604Z,9.85
2017-10-26T01:12:33.526Z,10.15
2017-10-26T01:13:07.396Z,10.45
2017-10-26T01:13:41.266Z,10.48
2017-10-26T01:14:15.138Z,10.60
2017-10-26T01:14:49.004Z,9.43
2017-10-26T01:15:22.870Z,9.88
2017-10-26T01:15:56.740Z,10.18
2017-10-26T01:16:30.611Z,10.32
2017-10-26T01:17:04.481Z,11.38
2017-10-26T01:17:38.369Z,10.20
2017-10-26T01:18:12.242Z,11.35
2017-10-26T01:18:46.110Z,10.57
2017-10-26T01:19:19.984Z,11.52
2017-10-26T01:19:53.842Z,10.73
2017-10-26T01:20:27.850Z,10.50
2017-10-26T01:21:01.720Z,10.68
2017-10-26T01:21:35.735Z,11.82
2017-10-26T01:22:09.598Z,12.05
2017-10-26T01:22:43.476Z,11.80
2017-10-26T01:23:17.358Z,10.80
2017-10-26T01:23:51.227Z,10.25
2017-10-26T01:24:25.196Z,11.23
2017-10-26T01:24:59.067Z,11.30
2017-10-26T01:25:32.930Z,11.32
2017-10-26T01:26:06.812Z,12.02
2017-10-26T01:26:40.669Z,11.30
2017-10-26T01:27:14.537Z,11.55
2017-10-26T01:27:48.398Z,11.45
2017-10-26T01:28:22.295Z,11.05
2017-10-26T01:28:56.163Z,11.02
2017-10-26T01:29:30.051Z,10.80
2017-10-26T01:30:03.928Z,12.18
2017-10-26T01:30:37.956Z,11.38
2017-10-26T01:31:11.821Z,11.43
2017-10-26T01:31:45.685Z,10.25
2017-10-26T01:32:19.541Z,11.68
2017-10-26T01:32:53.411Z,11.43
2017-10-26T01:33:27.348Z,11.20
2017-10-26T01:34:01.216Z,11.32
2017-10-26T01:34:35.088Z,11.48
2017-10-26T01:35:08.967Z,11.07
2017-10-26T01:35:42.822Z,11.90
2017-10-26T01:36:16.689Z,11.02
2017-10-26T01:36:50.563Z,12.07
2017-10-26T01:37:24.430Z,11.73
2017-10-26T01:37:58.293Z,10.85
2017-10-26T01:38:32.170Z,10.45
2017-10-26T01:39:06.060Z,10.80
2017-10-26T01:39:39.922Z,10.88
2017-10-26T01:40:13.787Z,9.70
2017-10-26T01:40:47.750Z,10.38
2017-10-26T01:41:21.623Z,10.70
2017-10-26T01:41:55.491Z,10.10
2017-10-26T01:42:29.358Z,12.40
2017-10-26T01:43:03.247Z,10.20
2017-10-26T01:43:37.130Z,10.25
2017-10-26T01:44:10.997Z,10.25
2017-10-26T01:44:44.870Z,10.02
2017-10-26T01:45:18.912Z,9.80
2017-10-26T01:45:52.787Z,10.82
2017-10-26T01:46:26.655Z,9.82
2017-10-26T01:47:00.597Z,10.82
2017-10-26T01:47:34.461Z,9.68
2017-10-26T01:48:08.326Z,11.00
2017-10-26T01:48:42.384Z,9.88
2017-10-26T01:49:16.258Z,11.00
2017-10-26T01:49:50.117Z,9.70
2017-10-26T01:50:23.992Z,9.75
2017-10-26T01:50:57.851Z,9.32
2017-10-26T01:51:31.710Z,9.25
2017-10-26T01:52:05.653Z,9.38
2017-10-26T01:52:39.506Z,9.40
2017-10-26T01:53:13.379Z,10.10
2017-10-26T01:53:47.338Z,9.40
2017-10-26T01:54:21.193Z,9.02
2017-10-26T01:54:55.061Z,9.73
2017-10-26T01:55:29.332Z,9.10
2017-10-26T01:56:03.223Z,8.52
2017-10-26T01:56:37.083Z,9.85
2017-10-26T01:57:10.966Z,9.40
2017-10-26T01:57:44.830Z,8.15
2017-10-26T01:58:18.731Z,8.30
2017-10-26T01:58:52.708Z,8.77
2017-10-26T01:59:26.605Z,9.38
2017-10-26T02:00:00.471Z,9.30
2017-10-26T02:00:34.348Z,8.55
2017-10-26T02:01:08.222Z,9.02
2017-10-26T02:01:42.096Z,9.60
2017-10-26T02:02:15.959Z,9.63
2017-10-26T02:02:49.823Z,8.90
2017-10-26T02:03:23.786Z,8.30
2017-10-26T02:03:57.673Z,8.70
2017-10-26T02:04:31.541Z,8.25
2017-10-26T02:05:05.397Z,8.43
2017-10-26T02:05:39.277Z,8.50
2017-10-26T02:06:18.912Z,8.35
2017-10-26T02:06:58.602Z,8.98
2017-10-26T02:07:38.208Z,9.68
2017-10-26T02:08:12.066Z,8.30
2017-10-26T02:08:45.935Z,8.50
2017-10-26T02:09:20.434Z,8.07
2017-10-26T02:09:54.430Z,8.98
2017-10-26T02:10:28.308Z,9.77
2017-10-26T02:11:02.184Z,9.02
2017-10-26T02:11:36.114Z,8.57
2017-10-26T02:12:10.144Z,8.20
2017-10-26T02:12:43.999Z,8.15
2017-10-26T02:13:18.108Z,7.50
2017-10-26T02:13:51.983Z,9.13
2017-10-26T02:14:25.864Z,9.10
2017-10-26T02:14:59.724Z,8.45
2017-10-26T02:15:33.590Z,8.43
2017-10-26T02:16:07.461Z,7.80
2017-10-26T02:16:41.323Z,9.15
2017-10-26T02:17:15.176Z,9.82
2017-10-26T02:17:49.054Z,8.88
2017-10-26T02:18:23.134Z,8.60
2017-10-26T02:18:56.998Z,7.93
2017-10-26T02:19:30.897Z,8.50
2017-10-26T02:20:04.769Z,8.45
2017-10-26T02:20:38.630Z,7.30
2017-10-26T02:21:12.507Z,8.57
2017-10-26T02:21:46.367Z,8.65
2017-10-26T02:22:20.229Z,9.18
2017-10-26T02:22:54.101Z,8.32
2017-10-26T02:23:28.007Z,8.40
2017-10-26T02:24:01.881Z,8.30
2017-10-26T02:24:35.809Z,8.95
2017-10-26T02:25:09.684Z,8.75
2017-10-26T02:25:43.559Z,8.80
2017-10-26T02:26:17.432Z,8.50
2017-10-26T02:26:51.299Z,8.35
2017-10-26T02:27:25.197Z,8.15
2017-10-26T02:27:59.102Z,8.32
2017-10-26T02:28:38.813Z,8.05
2017-10-26T02:29:18.626Z,8.60
2017-10-26T02:29:58.231Z,8.02
2017-10-26T02:30:37.833Z,8.73
2017-10-26T02:31:17.492Z,8.18
2017-10-26T02:31:51.362Z,8.13
2017-10-26T02:32:25.437Z,8.00
2017-10-26T02:32:59.308Z,7.62
2017-10-26T02:33:33.167Z,8.10
2017-10-26T02:34:07.043Z,8.93
2017-10-26T02:34:41.011Z,8.15
2017-10-26T02:35:15.276Z,8.38
2017-10-26T02:35:49.143Z,8.13
2017-10-26T02:36:23.006Z,8.57
2017-10-26T02:36:56.863Z,8.43
2017-10-26T02:37:30.726Z,9.80
2017-10-26T02:38:04.799Z,8.63
2017-10-26T02:38:38.693Z,9.10
2017-10-26T02:39:12.562Z,8.73
2017-10-26T02:39:46.458Z,8.88
2017-10-26T02:40:20.326Z,9.18
2017-10-26T02:40:54.201Z,8.00
2017-10-26T02:41:28.068Z,8.85
2017-10-26T02:42:01.936Z,9.20
2017-10-26T02:42:35.945Z,8.70
2017-10-26T02:43:09.858Z,8.57
2017-10-26T02:43:43.948Z,9.70
2017-10-26T02:44:17.836Z,8.10
2017-10-26T02:44:51.694Z,8.18
2017-10-26T02:45:25.589Z,8.63
2017-10-26T02:45:59.531Z,9.23
2017-10-26T02:46:33.419Z,8.95
2017-10-26T02:47:07.425Z,9.13
2017-10-26T02:47:41.303Z,9.00
2017-10-26T02:48:15.165Z,9.07
2017-10-26T02:48:49.065Z,8.80
2017-10-26T02:49:22.934Z,8.65
2017-10-26T02:49:56.792Z,9.07
2017-10-26T02:50:30.806Z,8.27
2017-10-26T02:51:04.685Z,8.93
2017-10-26T02:51:38.690Z,8.88
2017-10-26T02:52:12.547Z,8.88
2017-10-26T02:52:46.413Z,8.05
2017-10-26T02:53:20.275Z,8.88
2017-10-26T02:53:54.174Z,8.80
2017-10-26T02:54:28.027Z,7.95
2017-10-26T02:55:01.903Z,9.57
2017-10-26T02:55:35.783Z,9.07
2017-10-26T02:56:09.742Z,8.48
2017-10-26T02:56:43.612Z,8.20
2017-10-26T02:57:17.478Z,8.30
2017-10-26T02:57:51.429Z,9.45
2017-10-26T02:58:25.314Z,8.32
2017-10-26T02:58:59.391Z,8.75
2017-10-26T02:59:33.263Z,8.98
2017-10-26T03:00:07.131Z,9.55
2017-10-26T03:00:40.998Z,8.50
2017-10-26T03:01:15.106Z,8.75
2017-10-26T03:01:48.968Z,8.65
2017-10-26T03:02:23.103Z,8.82
2017-10-26T03:02:56.976Z,8.80
2017-10-26T03:03:31.005Z,10.23
2017-10-26T03:04:04.865Z,9.00
2017-10-26T03:04:38.886Z,8.70
2017-10-26T03:05:12.743Z,8.60
2017-10-26T03:05:46.606Z,9.80
2017-10-26T03:06:20.474Z,8.45
2017-10-26T03:06:54.336Z,8.98
2017-10-26T03:07:28.201Z,7.93
2017-10-26T03:08:02.054Z,8.75
2017-10-26T03:08:36.060Z,7.95
2017-10-26T03:09:09.931Z,8.95
2017-10-26T03:09:43.799Z,9.20
2017-10-26T03:10:17.658Z,8.32
2017-10-26T03:10:51.535Z,8.50
2017-10-26T03:11:25.402Z,8.85
2017-10-26T03:11:59.251Z,9.07
2017-10-26T03:12:33.136Z,8.30
2017-10-26T03:13:07.364Z,9.75
2017-10-26T03:13:41.237Z,8.93
2017-10-26T03:14:15.109Z,10.05
2017-10-26T03:14:49.013Z,9.05
2017-10-26T03:15:22.871Z,9.25
2017-10-26T03:15:56.793Z,9.98
2017-10-26T03:16:30.655Z,10.20
2017-10-26T03:17:04.536Z,10.15
2017-10-26T03:17:38.403Z,10.05
2017-10-26T03:18:12.291Z,9.60
2017-10-26T03:18:46.141Z,8.85
2017-10-26T03:19:20.164Z,9.30
2017-10-26T03:19:54.022Z,9.70
2017-10-26T03:20:27.898Z,10.05
2017-10-26T03:21:01.775Z,10.20
2017-10-26T03:21:35.635Z,9.80
2017-10-26T03:22:09.503Z,10.88
2017-10-26T03:22:43.409Z,10.88
2017-10-26T03:23:17.276Z,10.50
2017-10-26T03:23:51.165Z,10.68
2017-10-26T03:24:25.139Z,11.02
2017-10-26T03:24:59.004Z,10.90
2017-10-26T03:25:32.883Z,11.57
2017-10-26T03:26:07.337Z,11.38
2017-10-26T03:26:41.242Z,10.93
2017-10-26T03:27:15.127Z,11.98
2017-10-26T03:27:49.001Z,10.90
2017-10-26T03:28:22.901Z,11.60
2017-10-26T03:28:56.755Z,11.77
2017-10-26T03:29:30.637Z,11.10
2017-10-26T03:30:04.495Z,11.98
2017-10-26T03:30:38.392Z,12.60
2017-10-26T03:31:12.275Z,12.57
2017-10-26T03:31:46.125Z,12.27
2017-10-26T03:32:19.991Z,12.15
2017-10-26T03:32:53.853Z,13.18
2017-10-26T03:33:27.726Z,11.23
2017-10-26T03:34:01.853Z,10.70
2017-10-26T03:34:35.770Z,12.95
2017-10-26T03:35:09.651Z,13.05
2017-10-26T03:35:43.538Z,12.13
2017-10-26T03:36:17.659Z,13.65
2017-10-26T03:36:51.530Z,12.60
2017-10-26T03:37:25.451Z,13.50
2017-10-26T03:37:59.316Z,12.85
2017-10-26T03:38:33.291Z,11.48
2017-10-26T03:39:07.217Z,12.35
2017-10-26T03:39:41.207Z,13.50
2017-10-26T03:40:15.078Z,12.73
2017-10-26T03:40:49.209Z,13.85
2017-10-26T03:41:23.223Z,13.60
2017-10-26T03:41:57.102Z,13.23
2017-10-26T03:42:31.032Z,13.18
2017-10-26T03:43:04.981Z,13.57
2017-10-26T03:43:38.864Z,13.15
2017-10-26T03:44:12.736Z,12.23
2017-10-26T03:44:46.595Z,13.82
2017-10-26T03:45:20.473Z,12.43
2017-10-26T03:45:54.354Z,13.00
2017-10-26T03:46:28.287Z,13.52
2017-10-26T03:47:02.173Z,13.40
2017-10-26T03:47:36.056Z,13.77
2017-10-26T03:48:09.928Z,14.57
2017-10-26T03:48:43.789Z,13.20
2017-10-26T03:49:17.753Z,13.30
2017-10-26T03:49:51.627Z,13.35
2017-10-26T03:50:25.511Z,13.90
2017-10-26T03:50:59.370Z,13.23
2017-10-26T03:51:33.538Z,13.25
2017-10-26T03:52:07.444Z,13.57
2017-10-26T03:52:41.303Z,12.65
2017-10-26T03:53:15.328Z,14.10
2017-10-26T03:53:49.194Z,13.27
2017-10-26T03:54:23.310Z,12.88
2017-10-26T03:54:57.325Z,13.68
2017-10-26T03:55:31.316Z,14.63
2017-10-26T03:56:05.183Z,13.60
2017-10-26T03:56:39.082Z,16.52
2017-10-26T03:57:12.958Z,14.50
2017-10-26T03:57:46.818Z,14.18
2017-10-26T03:58:20.781Z,13.18
2017-10-26T03:58:54.689Z,13.88
2017-10-26T03:59:28.576Z,14.05
2017-10-26T04:00:02.456Z,14.27
2017-10-26T04:00:36.326Z,14.10
2017-10-26T04:01:10.670Z,14.98
2017-10-26T04:01:44.547Z,14.20
2017-10-26T04:02:18.424Z,13.82
2017-10-26T04:02:52.283Z,14.18
2017-10-26T04:03:26.149Z,14.13
2017-10-26T04:04:48.454Z,15.27
2017-10-26T04:05:22.350Z,14.23
2017-10-26T04:05:56.225Z,15.00
2017-10-26T04:06:30.269Z,15.93
2017-10-26T04:07:04.159Z,13.93
2017-10-26T04:07:38.065Z,14.50
2017-10-26T04:08:12.066Z,14.13
2017-10-26T04:08:45.933Z,15.18
2017-10-26T04:09:19.803Z,14.65
2017-10-26T04:09:53.746Z,14.40
2017-10-26T04:10:27.619Z,13.98
2017-10-26T04:11:01.638Z,13.73
2017-10-26T04:11:35.541Z,13.93
2017-10-26T04:12:09.434Z,13.55
2017-10-26T04:12:43.299Z,14.23
2017-10-26T04:13:17.200Z,14.43
2017-10-26T04:13:51.061Z,14.45
2017-10-26T04:14:24.929Z,14.57
2017-10-26T04:14:58.903Z,14.20
2017-10-26T04:15:32.912Z,14.02
2017-10-26T04:16:06.907Z,15.07
2017-10-26T04:16:40.777Z,14.93
2017-10-26T04:17:14.646Z,14.50
2017-10-26T04:17:48.516Z,15.75
2017-10-26T04:18:22.583Z,13.18
2017-10-26T04:18:56.493Z,14.50
2017-10-26T04:19:30.575Z,15.10
2017-10-26T04:20:04.452Z,15.23
2017-10-26T04:20:38.327Z,13.25
2017-10-26T04:21:12.218Z,14.38
2017-10-26T04:21:46.254Z,15.35
2017-10-26T04:22:20.136Z,14.00
2017-10-26T04:22:54.220Z,14.85
2017-10-26T04:23:28.100Z,14.15
2017-10-26T04:24:01.967Z,14.27
2017-10-26T04:24:35.848Z,14.77
2017-10-26T04:25:09.936Z,14.02
2017-10-26T04:25:43.813Z,13.18
2017-10-26T04:26:17.694Z,14.68
2017-10-26T04:26:51.621Z,12.88
2017-10-26T04:27:25.499Z,12.70
2017-10-26T04:27:59.371Z,12.63
2017-10-26T04:28:33.227Z,13.98
2017-10-26T04:29:07.093Z,16.23
2017-10-26T04:29:40.956Z,13.98
2017-10-26T04:30:14.854Z,14.57
2017-10-26T04:30:48.714Z,13.25
2017-10-26T04:31:22.883Z,14.35
2017-10-26T04:31:56.738Z,12.93
2017-10-26T04:32:30.631Z,12.80
2017-10-26T04:33:04.598Z,13.00
2017-10-26T04:33:38.494Z,12.70
2017-10-26T04:34:12.363Z,13.10
2017-10-26T04:34:46.232Z,13.55
2017-10-26T04:35:20.122Z,13.65
2017-10-26T04:35:53.987Z,13.50
2017-10-26T04:36:27.850Z,14.07
2017-10-26T04:37:01.843Z,12.75
2017-10-26T04:37:35.714Z,13.20
2017-10-26T04:38:09.586Z,13.38
2017-10-26T04:38:43.502Z,13.38
2017-10-26T04:39:17.522Z,12.93
2017-10-26T04:39:51.426Z,13.77
2017-10-26T04:40:25.307Z,12.98
2017-10-26T04:40:59.165Z,12.57
2017-10-26T04:41:33.013Z,11.90
2017-10-26T04:42:07.015Z,12.52
2017-10-26T04:42:40.899Z,12.70
2017-10-26T04:43:14.796Z,12.50
2017-10-26T04:43:48.668Z,12.60
2017-10-26T04:44:22.886Z,12.55
2017-10-26T04:44:56.755Z,12.40
2017-10-26T04:45:31.261Z,12.10
2017-10-26T04:46:05.130Z,10.77
2017-10-26T04:46:39.007Z,11.95
2017-10-26T04:47:12.874Z,12.55
2017-10-26T04:47:46.804Z,12.35
2017-10-26T04:48:20.666Z,11.75
2017-10-26T04:48:54.583Z,13.62
2017-10-26T04:49:28.677Z,12.57
2017-10-26T04:50:02.575Z,12.20
2017-10-26T04:50:36.466Z,12.50
2017-10-26T04:51:10.832Z,11.77
2017-10-26T04:51:44.714Z,12.43
2017-10-26T04:52:18.574Z,12.20
2017-10-26T04:52:52.470Z,11.88
2017-10-26T04:53:26.459Z,10.90
2017-10-26T04:54:00.482Z,12.10
2017-10-26T04:54:34.657Z,12.25
2017-10-26T04:55:08.636Z,11.55
2017-10-26T04:55:42.499Z,12.75
2017-10-26T04:56:16.393Z,11.27
2017-10-26T04:56:50.279Z,12.05
2017-10-26T04:57:24.191Z,12.88
2017-10-26T04:57:58.070Z,13.10
2017-10-26T04:58:31.934Z,13.15
2017-10-26T04:59:05.807Z,13.15
2017-10-26T04:59:39.667Z,11.85
2017-10-26T05:00:13.537Z,11.52
2017-10-26T05:00:47.404Z,12.55
2017-10-26T05:01:21.274Z,11.25
2017-10-26T05:01:55.181Z,10.90
2017-10-26T05:02:29.329Z,12.73
2017-10-26T05:03:03.271Z,12.15
2017-10-26T05:03:37.483Z,12.80
2017-10-26T05:04:11.372Z,11.95
2017-10-26T05:04:45.242Z,11.90
2017-10-26T05:05:19.120Z,12.43
2017-10-26T05:05:53.032Z,12.88
2017-10-26T05:06:26.912Z,12.30
2017-10-26T05:07:00.796Z,12.10
2017-10-26T05:07:34.689Z,12.20
2017-10-26T05:08:08.584Z,11.98
2017-10-26T05:08:42.647Z,11.90
2017-10-26T05:09:16.506Z,10.85
2017-10-26T05:09:50.479Z,11.70
2017-10-26T05:10:24.353Z,12.25
2017-10-26T05:10:58.224Z,11.23
2017-10-26T05:11:32.103Z,12.18
2017-10-26T05:12:06.019Z,11.12
2017-10-26T05:12:39.899Z,10.20
2017-10-26T05:13:13.859Z,11.95
2017-10-26T05:13:47.738Z,11.25
2017-10-26T05:14:21.605Z,11.25
2017-10-26T05:14:55.924Z,11.85
2017-10-26T05:15:30.096Z,10.27
2017-10-26T05:16:03.962Z,11.77
2017-10-26T05:16:37.847Z,11.43
2017-10-26T05:17:11.794Z,11.35
2017-10-26T05:17:45.691Z,11.35
2017-10-26T05:18:19.568Z,11.70
2017-10-26T05:18:53.438Z,11.60
2017-10-26T05:19:27.309Z,12.32
2017-10-26T05:20:01.465Z,11.05
2017-10-26T05:20:35.368Z,11.48
2017-10-26T05:21:09.250Z,12.50
2017-10-26T05:21:43.284Z,11.35
2017-10-26T05:22:17.371Z,12.35
2017-10-26T05:22:51.240Z,12.75
2017-10-26T05:23:25.159Z,10.85
2017-10-26T05:23:59.018Z,11.30
2017-10-26T05:24:35.680Z,12.20
2017-10-26T05:25:09.554Z,10.70
2017-10-26T05:25:43.423Z,11.60
2017-10-26T05:26:17.282Z,12.80
2017-10-26T05:26:51.150Z,11.75
2017-10-26T05:27:25.015Z,11.82
2017-10-26T05:27:58.914Z,12.27
2017-10-26T05:28:32.793Z,11.30
2017-10-26T05:29:06.663Z,12.15
2017-10-26T05:29:40.534Z,12.55
2017-10-26T05:30:14.673Z,10.88
2017-10-26T05:30:48.530Z,11.80
2017-10-26T05:31:22.391Z,11.65
2017-10-26T05:31:56.254Z,11.18
2017-10-26T05:32:30.133Z,12.20
2017-10-26T05:33:04.012Z,11.45
2017-10-26T05:33:37.894Z,12.30
2017-10-26T05:34:11.757Z,12.93
2017-10-26T05:34:45.610Z,11.07
2017-10-26T05:35:19.502Z,13.57
2017-10-26T05:35:53.390Z,12.27
2017-10-26T05:36:27.263Z,11.45
2017-10-26T05:37:01.122Z,11.70
2017-10-26T05:37:35.003Z,11.73
2017-10-26T05:38:08.871Z,11.35
2017-10-26T05:38:42.775Z,11.25
2017-10-26T05:39:16.766Z,11.05
2017-10-26T05:39:50.624Z,11.65
2017-10-26T05:40:24.491Z,11.80
2017-10-26T05:40:58.363Z,12.90
2017-10-26T05:41:32.250Z,10.93
2017-10-26T05:42:06.119Z,11.60
2017-10-26T05:42:40.010Z,11.35
2017-10-26T05:43:13.874Z,11.77
2017-10-26T05:43:48.047Z,12.02
2017-10-26T05:44:21.917Z,13.23
2017-10-26T05:44:55.820Z,12.37
2017-10-26T05:45:29.798Z,12.15
2017-10-26T05:46:03.686Z,11.73
2017-10-26T05:46:37.609Z,11.35
2017-10-26T05:47:11.487Z,10.65
2017-10-26T05:47:45.372Z,12.23
2017-10-26T05:48:19.276Z,11.98
2017-10-26T05:48:53.158Z,10.90
2017-10-26T05:49:27.026Z,12.25
2017-10-26T05:50:01.556Z,12.45
2017-10-26T05:50:35.435Z,11.60
2017-10-26T05:51:09.609Z,11.90
2017-10-26T05:51:43.489Z,12.68
2017-10-26T05:52:17.377Z,13.70
2017-10-26T05:52:51.241Z,12.48
2017-10-26T05:53:25.288Z,12.05
2017-10-26T05:53:59.156Z,12.43
2017-10-26T05:54:33.026Z,12.73
2017-10-26T05:55:06.899Z,13.70
2017-10-26T05:55:40.962Z,13.10
2017-10-26T05:56:14.863Z,12.37
2017-10-26T05:56:48.956Z,12.18
2017-10-26T05:57:23.055Z,12.15
2017-10-26T05:57:57.171Z,12.70
2017-10-26T05:58:31.038Z,10.98
2017-10-26T05:59:04.918Z,11.23
2017-10-26T05:59:38.795Z,11.32
2017-10-26T06:00:12.676Z,12.05
2017-10-26T06:00:46.546Z,12.37
2017-10-26T06:01:20.526Z,12.23
2017-10-26T06:01:54.397Z,11.70
2017-10-26T06:02:28.269Z,11.60
2017-10-26T06:03:02.131Z,11.95
2017-10-26T06:03:36.025Z,12.43
2017-10-26T06:04:09.957Z,12.52
2017-10-26T06:04:43.920Z,12.27
2017-10-26T06:05:17.802Z,12.95
2017-10-26T06:05:51.682Z,12.95
2017-10-26T06:06:25.557Z,12.70
2017-10-26T06:06:59.443Z,12.55
2017-10-26T06:07:33.330Z,12.85
2017-10-26T06:08:07.204Z,12.05
2017-10-26T06:08:41.067Z,13.18
2017-10-26T06:09:14.957Z,11.63
2017-10-26T06:09:48.818Z,11.45
2017-10-26T06:10:22.697Z,11.73
2017-10-26T06:10:56.564Z,12.93
2017-10-26T06:11:30.462Z,13.57
2017-10-26T06:12:04.352Z,13.93
2017-10-26T06:12:38.220Z,12.27
2017-10-26T06:13:12.086Z,11.32
2017-10-26T06:13:45.955Z,11.40
2017-10-26T06:14:19.909Z,12.50
2017-10-26T06:14:53.761Z,12.05
2017-10-26T06:15:27.638Z,13.38
2017-10-26T06:16:01.509Z,11.68
2017-10-26T06:16:35.559Z,12.63
2017-10-26T06:17:09.441Z,12.43
2017-10-26T06:17:43.366Z,12.77
2017-10-26T06:18:17.281Z,12.32
2017-10-26T06:18:51.265Z,13.27
2017-10-26T06:19:25.211Z,13.75
2017-10-26T06:19:59.142Z,13.23
2017-10-26T06:20:33.019Z,11.88
2017-10-26T06:21:06.911Z,12.18
2017-10-26T06:21:40.839Z,12.45
2017-10-26T06:22:14.707Z,13.55
2017-10-26T06:22:48.577Z,12.88
2017-10-26T06:23:22.442Z,13.02
2017-10-26T06:23:56.356Z,13.13
2017-10-26T06:24:30.332Z,12.98
2017-10-26T06:25:04.210Z,12.52
2017-10-26T06:25:38.089Z,13.30
2017-10-26T06:26:11.956Z,14.60
2017-10-26T06:26:45.831Z,12.40
2017-10-26T06:27:19.708Z,12.52
2017-10-26T06:27:53.571Z,13.00
2017-10-26T06:28:27.429Z,11.32
2017-10-26T06:29:01.301Z,12.82
2017-10-26T06:29:35.188Z,13.32
2017-10-26T06:30:09.076Z,13.45
2017-10-26T06:30:42.964Z,14.02
2017-10-26T06:31:16.831Z,12.82
2017-10-26T06:31:50.698Z,11.60
2017-10-26T06:32:24.567Z,13.75
2017-10-26T06:32:58.429Z,12.80
2017-10-26T06:33:32.296Z,12.07
2017-10-26T06:34:06.191Z,12.50
2017-10-26T06:34:40.186Z,13.02
2017-10-26T06:35:14.057Z,13.10
2017-10-26T06:35:47.925Z,13.32
2017-10-26T06:36:21.793Z,13.82
2017-10-26T06:36:55.662Z,14.05
2017-10-26T06:37:29.542Z,13.80
2017-10-26T06:38:03.399Z,14.20
2017-10-26T06:38:37.263Z,16.37
2017-10-26T06:39:11.136Z,12.63
2017-10-26T06:39:45.016Z,15.00
2017-10-26T06:40:18.878Z,12.18
2017-10-26T06:40:52.761Z,13.25
2017-10-26T06:41:26.882Z,13.07
2017-10-26T06:42:00.763Z,12.90
2017-10-26T06:42:34.778Z,12.20
2017-10-26T06:43:08.690Z,12.98
2017-10-26T06:43:42.572Z,14.68
2017-10-26T06:44:17.060Z,13.90
2017-10-26T06:44:51.038Z,12.70
2017-10-26T06:45:24.903Z,14.00
2017-10-26T06:45:58.773Z,13.50
2017-10-26T06:46:32.639Z,12.27
2017-10-26T06:47:06.508Z,12.77
2017-10-26T06:47:40.378Z,12.20
2017-10-26T06:48:14.248Z,12.82
2017-10-26T06:48:48.339Z,11.50
2017-10-26T06:49:22.216Z,11.35
2017-10-26T06:49:56.235Z,12.70
2017-10-26T06:50:30.120Z,12.15
2017-10-26T06:51:03.975Z,12.43
2017-10-26T06:51:37.874Z,10.25
2017-10-26T06:52:11.743Z,11.55
2017-10-26T06:52:45.655Z,12.88
2017-10-26T06:53:19.591Z,11.98
2017-10-26T06:53:53.473Z,10.93
2017-10-26T06:54:27.498Z,11.77
2017-10-26T06:55:01.384Z,12.40
2017-10-26T06:55:35.250Z,11.23
2017-10-26T06:56:09.159Z,13.68
2017-10-26T06:56:43.038Z,11.48
2017-10-26T06:57:16.936Z,11.40
2017-10-26T06:57:50.790Z,12.37
2017-10-26T06:58:24.659Z,10.60
2017-10-26T06:58:58.529Z,11.70
2017-10-26T06:59:32.396Z,10.40
2017-10-26T07:00:06.347Z,10.60
2017-10-26T07:00:40.444Z,9.77
2017-10-26T07:01:14.446Z,10.30
2017-10-26T07:01:48.645Z,10.15
2017-10-26T07:02:22.499Z,10.80
2017-10-26T07:02:56.365Z,10.77
2017-10-26T07:03:30.232Z,11.65
2017-10-26T07:04:04.104Z,10.23
2017-10-26T07:04:37.958Z,12.23
2017-10-26T07:05:11.847Z,12.10
2017-10-26T07:05:45.706Z,12.10
2017-10-26T07:06:19.582Z,11.07
2017-10-26T07:06:53.462Z,12.30
2017-10-26T07:07:27.336Z,11.90
2017-10-26T07:08:01.418Z,12.88
2017-10-26T07:08:35.274Z,11.15
2017-10-26T07:09:09.158Z,9.18
2017-10-26T07:09:44.193Z,10.68
2017-10-26T07:10:18.076Z,11.15
2017-10-26T07:10:51.934Z,9.38
2017-10-26T07:11:25.790Z,9.63
2017-10-26T07:11:59.667Z,10.00
2017-10-26T07:12:33.544Z,9.45
2017-10-26T07:13:07.402Z,11.12
2017-10-26T07:13:41.276Z,9.90
2017-10-26T07:14:15.145Z,9.00
2017-10-26T07:14:49.077Z,11.10
2017-10-26T07:15:23.007Z,10.13
2017-10-26T07:15:56.901Z,10.75
2017-10-26T07:16:30.841Z,10.30
2017-10-26T07:17:04.728Z,8.70
2017-10-26T07:17:38.620Z,9.25
2017-10-26T07:18:12.563Z,9.90
2017-10-26T07:18:46.451Z,10.10
2017-10-26T07:19:20.321Z,11.12
2017-10-26T07:19:54.198Z,9.55
2017-10-26T07:20:28.090Z,9.68
2017-10-26T07:21:01.998Z,9.68
2017-10-26T07:21:35.891Z,8.93
2017-10-26T07:22:09.752Z,10.13
2017-10-26T07:22:43.626Z,10.07